sensor_id;sensor_type;location;lat;lon;timestamp;pressure;altitude;pressure_sealevel;temperature;humidity
35676;BME280;21790;42.668;23.298;2024-03-25T00:00:31;93459.81;;;14.33;42.51
35676;BME280;21790;42.668;23.298;2024-03-25T00:02:57;93471.75;;;14.22;42.59
35676;BME280;21790;42.668;23.298;2024-03-25T00:05:23;93459.34;;;14.29;42.40
35676;BME280;21790;42.668;23.298;2024-03-25T00:07:51;93465.88;;;14.31;42.46
35676;BME280;21790;42.668;23.298;2024-03-25T00:10:18;93463.56;;;14.35;42.51
35676;BME280;21790;42.668;23.298;2024-03-25T00:12:46;93457.25;;;14.40;41.75
35676;BME280;21790;42.668;23.298;2024-03-25T00:15:13;93454.47;;;14.40;42.05
35676;BME280;21790;42.668;23.298;2024-03-25T00:17:38;93433.75;;;14.36;42.07
35676;BME280;21790;42.668;23.298;2024-03-25T00:20:05;93437.38;;;14.25;42.08
35676;BME280;21790;42.668;23.298;2024-03-25T00:22:34;93447.00;;;14.18;42.21
35676;BME280;21790;42.668;23.298;2024-03-25T00:25:00;93442.47;;;14.21;42.33
35676;BME280;21790;42.668;23.298;2024-03-25T00:27:26;93432.59;;;14.20;42.07
35676;BME280;21790;42.668;23.298;2024-03-25T00:29:51;93429.28;;;14.27;42.20
35676;BME280;21790;42.668;23.298;2024-03-25T00:32:17;93426.97;;;14.31;42.31
35676;BME280;21790;42.668;23.298;2024-03-25T00:34:43;93420.56;;;14.47;42.14
35676;BME280;21790;42.668;23.298;2024-03-25T00:37:09;93418.53;;;14.48;42.33
35676;BME280;21790;42.668;23.298;2024-03-25T00:39:34;93412.00;;;14.45;42.62
35676;BME280;21790;42.668;23.298;2024-03-25T00:42:00;93400.66;;;14.43;42.28
35676;BME280;21790;42.668;23.298;2024-03-25T00:44:26;93412.28;;;14.36;42.60
35676;BME280;21790;42.668;23.298;2024-03-25T00:46:52;93415.34;;;14.38;42.89
35676;BME280;21790;42.668;23.298;2024-03-25T00:49:18;93420.66;;;14.31;43.12
35676;BME280;21790;42.668;23.298;2024-03-25T00:51:44;93418.13;;;14.38;43.57
35676;BME280;21790;42.668;23.298;2024-03-25T00:54:11;93422.97;;;14.27;43.58
35676;BME280;21790;42.668;23.298;2024-03-25T00:56:36;93420.59;;;14.42;42.95
35676;BME280;21790;42.668;23.298;2024-03-25T00:59:02;93424.66;;;14.35;43.52
35676;BME280;21790;42.668;23.298;2024-03-25T01:01:32;93414.06;;;14.39;43.13
35676;BME280;21790;42.668;23.298;2024-03-25T01:03:58;93395.94;;;14.27;43.31
35676;BME280;21790;42.668;23.298;2024-03-25T01:06:24;93409.31;;;14.29;43.06
35676;BME280;21790;42.668;23.298;2024-03-25T01:08:51;93401.16;;;14.42;43.18
35676;BME280;21790;42.668;23.298;2024-03-25T01:11:17;93393.97;;;14.22;43.46
35676;BME280;21790;42.668;23.298;2024-03-25T01:13:43;93378.09;;;14.17;43.00
35676;BME280;21790;42.668;23.298;2024-03-25T01:16:09;93366.09;;;14.33;43.35
35676;BME280;21790;42.668;23.298;2024-03-25T01:18:36;93365.53;;;14.40;43.27
35676;BME280;21790;42.668;23.298;2024-03-25T01:21:02;93364.06;;;14.39;43.25
35676;BME280;21790;42.668;23.298;2024-03-25T01:23:29;93351.59;;;14.46;43.40
35676;BME280;21790;42.668;23.298;2024-03-25T01:25:55;93358.72;;;14.36;43.53
35676;BME280;21790;42.668;23.298;2024-03-25T01:28:21;93369.66;;;14.28;43.35
35676;BME280;21790;42.668;23.298;2024-03-25T01:30:48;93380.47;;;14.37;43.46
35676;BME280;21790;42.668;23.298;2024-03-25T01:33:14;93369.44;;;14.26;43.69
35676;BME280;21790;42.668;23.298;2024-03-25T01:35:40;93372.16;;;14.37;43.52
35676;BME280;21790;42.668;23.298;2024-03-25T01:38:06;93377.50;;;14.59;43.23
35676;BME280;21790;42.668;23.298;2024-03-25T01:40:33;93378.72;;;14.64;42.98
35676;BME280;21790;42.668;23.298;2024-03-25T01:43:01;93378.25;;;14.60;43.36
35676;BME280;21790;42.668;23.298;2024-03-25T01:45:29;93386.13;;;14.56;43.40
35676;BME280;21790;42.668;23.298;2024-03-25T01:48:07;93378.38;;;14.49;43.74
35676;BME280;21790;42.668;23.298;2024-03-25T01:50:39;93375.88;;;14.45;44.05
35676;BME280;21790;42.668;23.298;2024-03-25T01:53:06;93373.38;;;14.42;44.40
35676;BME280;21790;42.668;23.298;2024-03-25T01:55:34;93389.63;;;14.27;44.55
35676;BME280;21790;42.668;23.298;2024-03-25T01:58:04;93391.59;;;14.32;44.17
35676;BME280;21790;42.668;23.298;2024-03-25T02:00:31;93404.94;;;14.44;44.40
35676;BME280;21790;42.668;23.298;2024-03-25T02:02:57;93412.00;;;14.45;44.25
35676;BME280;21790;42.668;23.298;2024-03-25T02:05:24;93407.22;;;14.40;43.97
35676;BME280;21790;42.668;23.298;2024-03-25T02:07:51;93418.13;;;14.38;44.09
35676;BME280;21790;42.668;23.298;2024-03-25T02:10:17;93419.94;;;14.24;44.15
35676;BME280;21790;42.668;23.298;2024-03-25T02:12:44;93420.03;;;14.13;44.21
35676;BME280;21790;42.668;23.298;2024-03-25T02:15:12;93418.06;;;14.03;44.23
35676;BME280;21790;42.668;23.298;2024-03-25T02:17:41;93423.38;;;14.06;44.19
35676;BME280;21790;42.668;23.298;2024-03-25T02:20:07;93413.31;;;13.98;43.63
35676;BME280;21790;42.668;23.298;2024-03-25T02:22:34;93413.31;;;13.98;44.04
35676;BME280;21790;42.668;23.298;2024-03-25T02:25:07;93408.75;;;14.00;43.35
35676;BME280;21790;42.668;23.298;2024-03-25T02:27:39;93412.56;;;13.97;43.55
35676;BME280;21790;42.668;23.298;2024-03-25T02:30:09;93407.03;;;13.92;43.81
35676;BME280;21790;42.668;23.298;2024-03-25T02:32:39;93420.44;;;13.88;43.70
35676;BME280;21790;42.668;23.298;2024-03-25T02:35:09;93415.56;;;13.99;43.65
35676;BME280;21790;42.668;23.298;2024-03-25T02:37:37;93413.94;;;13.79;43.85
35676;BME280;21790;42.668;23.298;2024-03-25T02:40:03;93410.94;;;13.72;44.17
35676;BME280;21790;42.668;23.298;2024-03-25T02:42:31;93416.00;;;13.68;44.43
35676;BME280;21790;42.668;23.298;2024-03-25T02:44:58;93410.81;;;13.94;43.98
35676;BME280;21790;42.668;23.298;2024-03-25T02:47:24;93410.72;;;14.11;43.54
35676;BME280;21790;42.668;23.298;2024-03-25T02:49:50;93424.63;;;14.05;43.69
35676;BME280;21790;42.668;23.298;2024-03-25T02:52:18;93416.63;;;13.96;43.83
35676;BME280;21790;42.668;23.298;2024-03-25T02:54:43;93422.50;;;13.81;44.15
35676;BME280;21790;42.668;23.298;2024-03-25T02:57:09;93434.63;;;13.78;44.21
35676;BME280;21790;42.668;23.298;2024-03-25T02:59:35;93421.22;;;13.82;43.78
35676;BME280;21790;42.668;23.298;2024-03-25T03:02:00;93445.69;;;13.90;43.64
35676;BME280;21790;42.668;23.298;2024-03-25T03:04:26;93447.94;;;13.91;43.63
35676;BME280;21790;42.668;23.298;2024-03-25T03:06:53;93442.88;;;13.95;43.51
35676;BME280;21790;42.668;23.298;2024-03-25T03:09:19;93448.69;;;13.92;43.14
35676;BME280;21790;42.668;23.298;2024-03-25T03:11:45;93449.25;;;13.85;42.76
35676;BME280;21790;42.668;23.298;2024-03-25T03:14:11;93445.06;;;13.61;43.68
35676;BME280;21790;42.668;23.298;2024-03-25T03:16:38;93451.28;;;13.78;42.94
35676;BME280;21790;42.668;23.298;2024-03-25T03:19:04;93430.66;;;13.68;43.00
35676;BME280;21790;42.668;23.298;2024-03-25T03:21:30;93445.75;;;13.78;43.25
35676;BME280;21790;42.668;23.298;2024-03-25T03:23:56;93441.69;;;13.79;42.79
35676;BME280;21790;42.668;23.298;2024-03-25T03:26:22;93447.44;;;13.87;42.23
35676;BME280;21790;42.668;23.298;2024-03-25T03:28:53;93461.13;;;13.79;42.88
35676;BME280;21790;42.668;23.298;2024-03-25T03:31:19;93464.88;;;13.88;42.60
35676;BME280;21790;42.668;23.298;2024-03-25T03:33:50;93467.16;;;13.83;42.77
35676;BME280;21790;42.668;23.298;2024-03-25T03:36:18;93459.78;;;13.92;42.60
35676;BME280;21790;42.668;23.298;2024-03-25T03:38:44;93462.13;;;13.82;42.89
35676;BME280;21790;42.668;23.298;2024-03-25T03:41:10;93458.38;;;13.79;42.65
35676;BME280;21790;42.668;23.298;2024-03-25T03:43:36;93457.81;;;13.81;42.19
35676;BME280;21790;42.668;23.298;2024-03-25T03:46:03;93459.00;;;13.97;42.25
35676;BME280;21790;42.668;23.298;2024-03-25T03:48:30;93468.66;;;13.90;42.35
35676;BME280;21790;42.668;23.298;2024-03-25T03:50:56;93470.66;;;13.95;42.27
35676;BME280;21790;42.668;23.298;2024-03-25T03:53:22;93465.88;;;13.90;42.14
35676;BME280;21790;42.668;23.298;2024-03-25T03:55:59;93463.56;;;13.94;42.15
35676;BME280;21790;42.668;23.298;2024-03-25T03:58:25;93470.47;;;13.76;42.63
35676;BME280;21790;42.668;23.298;2024-03-25T04:00:51;93475.09;;;13.57;42.54
35676;BME280;21790;42.668;23.298;2024-03-25T04:03:18;93487.41;;;13.73;41.75
35676;BME280;21790;42.668;23.298;2024-03-25T04:05:45;93492.66;;;13.82;42.30
35676;BME280;21790;42.668;23.298;2024-03-25T04:08:11;93501.75;;;13.82;42.06
35676;BME280;21790;42.668;23.298;2024-03-25T04:10:38;93499.66;;;14.00;41.62
35676;BME280;21790;42.668;23.298;2024-03-25T04:13:06;93499.63;;;14.05;41.34
35676;BME280;21790;42.668;23.298;2024-03-25T04:15:36;93501.69;;;13.94;41.09
35676;BME280;21790;42.668;23.298;2024-03-25T04:18:04;93507.53;;;13.90;41.33
35676;BME280;21790;42.668;23.298;2024-03-25T04:20:37;93499.69;;;13.94;41.39
35676;BME280;21790;42.668;23.298;2024-03-25T04:23:03;93506.56;;;13.76;40.91
35676;BME280;21790;42.668;23.298;2024-03-25T04:25:29;93508.66;;;13.54;41.88
35676;BME280;21790;42.668;23.298;2024-03-25T04:27:56;93515.16;;;13.78;41.46
35676;BME280;21790;42.668;23.298;2024-03-25T04:30:24;93519.72;;;13.65;41.47
35676;BME280;21790;42.668;23.298;2024-03-25T04:32:53;93523.09;;;13.35;41.54
35676;BME280;21790;42.668;23.298;2024-03-25T04:35:24;93539.22;;;13.37;41.50
35676;BME280;21790;42.668;23.298;2024-03-25T04:37:54;93548.59;;;13.17;42.21
35676;BME280;21790;42.668;23.298;2024-03-25T04:40:22;93550.59;;;13.11;41.61
35676;BME280;21790;42.668;23.298;2024-03-25T04:42:48;93559.69;;;13.23;42.38
35676;BME280;21790;42.668;23.298;2024-03-25T04:45:22;93561.41;;;13.37;42.18
35676;BME280;21790;42.668;23.298;2024-03-25T04:47:51;93573.81;;;13.42;41.46
35676;BME280;21790;42.668;23.298;2024-03-25T04:50:20;93566.47;;;13.50;41.38
35676;BME280;21790;42.668;23.298;2024-03-25T04:52:48;93565.72;;;13.32;41.78
35676;BME280;21790;42.668;23.298;2024-03-25T04:55:14;93572.53;;;13.37;41.60
35676;BME280;21790;42.668;23.298;2024-03-25T04:57:40;93569.25;;;13.44;41.46
35676;BME280;21790;42.668;23.298;2024-03-25T05:00:06;93581.38;;;13.30;41.42
35676;BME280;21790;42.668;23.298;2024-03-25T05:02:46;93569.53;;;13.24;41.60
35676;BME280;21790;42.668;23.298;2024-03-25T05:05:12;93570.00;;;13.06;42.06
35676;BME280;21790;42.668;23.298;2024-03-25T05:07:43;93569.25;;;13.11;42.12
35676;BME280;21790;42.668;23.298;2024-03-25T05:10:16;93567.00;;;13.15;42.02
35676;BME280;21790;42.668;23.298;2024-03-25T05:12:47;93576.81;;;13.38;41.83
35676;BME280;21790;42.668;23.298;2024-03-25T05:15:15;93578.84;;;13.26;41.73
35676;BME280;21790;42.668;23.298;2024-03-25T05:17:41;93572.53;;;13.37;41.33
35676;BME280;21790;42.668;23.298;2024-03-25T05:20:07;93585.84;;;13.66;40.89
35676;BME280;21790;42.668;23.298;2024-03-25T05:22:38;93585.09;;;13.60;40.63
35676;BME280;21790;42.668;23.298;2024-03-25T05:25:04;93582.56;;;13.73;40.26
35676;BME280;21790;42.668;23.298;2024-03-25T05:27:30;93597.47;;;13.54;41.07
35676;BME280;21790;42.668;23.298;2024-03-25T05:29:58;93589.16;;;13.37;41.09
35676;BME280;21790;42.668;23.298;2024-03-25T05:32:24;93608.59;;;13.26;41.54
35676;BME280;21790;42.668;23.298;2024-03-25T05:34:51;93607.81;;;13.42;40.87
35676;BME280;21790;42.668;23.298;2024-03-25T05:37:18;93613.91;;;13.46;40.88
35676;BME280;21790;42.668;23.298;2024-03-25T05:39:46;93602.50;;;13.61;40.85
35676;BME280;21790;42.668;23.298;2024-03-25T05:42:16;93616.66;;;13.68;40.09
35676;BME280;21790;42.668;23.298;2024-03-25T05:44:45;93612.81;;;13.82;39.44
35676;BME280;21790;42.668;23.298;2024-03-25T05:47:11;93623.19;;;13.76;39.45
35676;BME280;21790;42.668;23.298;2024-03-25T05:49:38;93622.91;;;13.86;39.41
35676;BME280;21790;42.668;23.298;2024-03-25T05:52:08;93625.66;;;13.91;39.57
35676;BME280;21790;42.668;23.298;2024-03-25T05:54:34;93637.56;;;13.69;40.27
35676;BME280;21790;42.668;23.298;2024-03-25T05:57:37;93636.28;;;13.87;39.73
35676;BME280;21790;42.668;23.298;2024-03-25T06:00:04;93638.53;;;14.00;40.18
35676;BME280;21790;42.668;23.298;2024-03-25T06:39:57;93676.66;;;14.74;37.69
35676;BME280;21790;42.668;23.298;2024-03-25T06:42:23;93684.97;;;14.79;38.13
35676;BME280;21790;42.668;23.298;2024-03-25T06:44:49;93692.41;;;15.06;37.93
35676;BME280;21790;42.668;23.298;2024-03-25T07:08:36;93715.19;;;15.52;35.93
35676;BME280;21790;42.668;23.298;2024-03-25T07:11:03;93718.19;;;15.59;37.09
35676;BME280;21790;42.668;23.298;2024-03-25T07:13:29;93723.59;;;15.40;36.98
35676;BME280;21790;42.668;23.298;2024-03-25T07:15:55;93714.50;;;15.34;36.56
35676;BME280;21790;42.668;23.298;2024-03-25T07:18:21;93722.09;;;14.93;37.03
35676;BME280;21790;42.668;23.298;2024-03-25T07:20:47;93726.59;;;15.01;36.97
35676;BME280;21790;42.668;23.298;2024-03-25T07:23:13;93736.47;;;15.43;36.27
35676;BME280;21790;42.668;23.298;2024-03-25T07:25:38;93726.63;;;15.78;36.32
35676;BME280;21790;42.668;23.298;2024-03-25T07:28:05;93735.31;;;15.69;36.18
35676;BME280;21790;42.668;23.298;2024-03-25T07:30:31;93742.47;;;15.59;35.77
35676;BME280;21790;42.668;23.298;2024-03-25T07:32:58;93732.00;;;15.70;35.82
35676;BME280;21790;42.668;23.298;2024-03-25T07:35:24;93727.66;;;16.05;35.31
35676;BME280;21790;42.668;23.298;2024-03-25T07:37:51;93729.63;;;16.10;35.87
35676;BME280;21790;42.668;23.298;2024-03-25T07:40:18;93733.78;;;16.03;35.23
35676;BME280;21790;42.668;23.298;2024-03-25T07:42:43;93734.19;;;15.83;35.53
35676;BME280;21790;42.668;23.298;2024-03-25T07:45:09;93728.28;;;15.92;35.47
35676;BME280;21790;42.668;23.298;2024-03-25T07:47:37;93744.13;;;16.32;35.18
35676;BME280;21790;42.668;23.298;2024-03-25T07:50:04;93733.72;;;16.33;35.13
35676;BME280;21790;42.668;23.298;2024-03-25T07:52:31;93727.63;;;16.59;35.31
35676;BME280;21790;42.668;23.298;2024-03-25T07:54:57;93736.56;;;16.27;35.44
35676;BME280;21790;42.668;23.298;2024-03-25T07:57:23;93729.19;;;16.54;33.97
35676;BME280;21790;42.668;23.298;2024-03-25T07:59:49;93738.47;;;16.87;34.87
35676;BME280;21790;42.668;23.298;2024-03-25T08:02:15;93735.59;;;17.17;33.68
35676;BME280;21790;42.668;23.298;2024-03-25T08:04:41;93736.16;;;17.09;33.94
35676;BME280;21790;42.668;23.298;2024-03-25T08:07:07;93740.09;;;17.01;33.30
35676;BME280;21790;42.668;23.298;2024-03-25T08:09:33;93742.97;;;16.95;34.77
35676;BME280;21790;42.668;23.298;2024-03-25T08:11:59;93747.94;;;17.02;34.37
35676;BME280;21790;42.668;23.298;2024-03-25T08:14:25;93743.91;;;16.79;34.41
35676;BME280;21790;42.668;23.298;2024-03-25T08:16:51;93733.16;;;17.45;33.47
35676;BME280;21790;42.668;23.298;2024-03-25T08:19:16;93733.84;;;17.70;33.09
35676;BME280;21790;42.668;23.298;2024-03-25T08:21:42;93736.72;;;17.64;32.60
35676;BME280;21790;42.668;23.298;2024-03-25T08:24:08;93748.78;;;17.53;33.21
35676;BME280;21790;42.668;23.298;2024-03-25T08:26:34;93751.72;;;17.05;32.84
35676;BME280;21790;42.668;23.298;2024-03-25T08:29:00;93750.75;;;17.21;33.30
35676;BME280;21790;42.668;23.298;2024-03-25T08:31:27;93751.44;;;17.27;33.40
35676;BME280;21790;42.668;23.298;2024-03-25T08:33:53;93760.13;;;17.61;33.10
35676;BME280;21790;42.668;23.298;2024-03-25T08:36:18;93753.28;;;17.56;32.64
35676;BME280;21790;42.668;23.298;2024-03-25T08:38:47;93771.59;;;17.39;32.05
35676;BME280;21790;42.668;23.298;2024-03-25T08:41:13;93763.81;;;17.50;34.00
35676;BME280;21790;42.668;23.298;2024-03-25T08:43:40;93762.44;;;17.76;32.74
35676;BME280;21790;42.668;23.298;2024-03-25T08:46:06;93768.63;;;17.50;33.07
35676;BME280;21790;42.668;23.298;2024-03-25T08:48:32;93771.63;;;17.14;32.78
35676;BME280;21790;42.668;23.298;2024-03-25T08:50:58;93768.41;;;17.10;32.31
35676;BME280;21790;42.668;23.298;2024-03-25T08:53:24;93763.03;;;17.31;33.02
35676;BME280;21790;42.668;23.298;2024-03-25T08:55:50;93764.03;;;17.34;33.24
35676;BME280;21790;42.668;23.298;2024-03-25T08:58:16;93766.25;;;17.60;32.23
35676;BME280;21790;42.668;23.298;2024-03-25T09:00:42;93766.34;;;17.86;32.58
35676;BME280;21790;42.668;23.298;2024-03-25T09:03:09;93774.03;;;18.30;31.87
35676;BME280;21790;42.668;23.298;2024-03-25T09:05:36;93774.84;;;18.57;31.38
35676;BME280;21790;42.668;23.298;2024-03-25T09:08:08;93776.63;;;18.42;31.27
35676;BME280;21790;42.668;23.298;2024-03-25T09:10:37;93779.97;;;18.08;32.06
35676;BME280;21790;42.668;23.298;2024-03-25T09:13:21;93784.13;;;18.20;31.02
35676;BME280;21790;42.668;23.298;2024-03-25T09:15:49;93786.28;;;17.95;32.07
35676;BME280;21790;42.668;23.298;2024-03-25T09:18:15;93787.50;;;18.00;32.05
35676;BME280;21790;42.668;23.298;2024-03-25T09:20:42;93791.59;;;17.80;31.03
35676;BME280;21790;42.668;23.298;2024-03-25T09:23:08;93798.75;;;17.57;31.04
35676;BME280;21790;42.668;23.298;2024-03-25T09:25:34;93793.75;;;17.12;32.10
35676;BME280;21790;42.668;23.298;2024-03-25T09:28:00;93798.81;;;17.33;32.32
35676;BME280;21790;42.668;23.298;2024-03-25T09:30:26;93802.03;;;16.99;32.33
35676;BME280;21790;42.668;23.298;2024-03-25T09:32:52;93808.75;;;17.09;32.86
35676;BME280;21790;42.668;23.298;2024-03-25T09:35:18;93803.78;;;16.78;32.57
35676;BME280;21790;42.668;23.298;2024-03-25T09:37:43;93805.75;;;16.83;32.78
35676;BME280;21790;42.668;23.298;2024-03-25T09:40:10;93792.66;;;16.97;32.37
35676;BME280;21790;42.668;23.298;2024-03-25T09:42:55;93799.78;;;17.17;32.25
35676;BME280;21790;42.668;23.298;2024-03-25T09:45:24;93808.34;;;17.00;32.30
35676;BME280;21790;42.668;23.298;2024-03-25T09:47:55;93803.72;;;16.59;33.05
35676;BME280;21790;42.668;23.298;2024-03-25T09:50:21;93797.22;;;16.46;32.91
35676;BME280;21790;42.668;23.298;2024-03-25T09:52:49;93802.47;;;16.55;32.78
35676;BME280;21790;42.668;23.298;2024-03-25T09:55:16;93799.66;;;16.30;33.10
35676;BME280;21790;42.668;23.298;2024-03-25T09:57:45;93794.72;;;16.42;33.41
35676;BME280;21790;42.668;23.298;2024-03-25T10:00:12;93797.84;;;16.33;33.36
35676;BME280;21790;42.668;23.298;2024-03-25T10:02:39;93806.03;;;16.25;33.60
35676;BME280;21790;42.668;23.298;2024-03-25T10:05:06;93804.19;;;16.33;33.54
35676;BME280;21790;42.668;23.298;2024-03-25T10:07:33;93799.63;;;16.36;33.19
35676;BME280;21790;42.668;23.298;2024-03-25T10:09:59;93800.66;;;16.57;32.95
35676;BME280;21790;42.668;23.298;2024-03-25T10:12:26;93807.09;;;16.77;32.62
35676;BME280;21790;42.668;23.298;2024-03-25T10:14:53;93806.44;;;16.65;31.90
35676;BME280;21790;42.668;23.298;2024-03-25T10:17:19;93800.16;;;16.59;32.07
35676;BME280;21790;42.668;23.298;2024-03-25T10:19:46;93816.38;;;16.60;31.93
35676;BME280;21790;42.668;23.298;2024-03-25T10:22:11;93819.59;;;16.40;32.20
35676;BME280;21790;42.668;23.298;2024-03-25T10:24:45;93814.28;;;16.66;32.12
35676;BME280;21790;42.668;23.298;2024-03-25T10:27:21;93811.88;;;16.52;32.32
35676;BME280;21790;42.668;23.298;2024-03-25T10:29:48;93806.47;;;16.35;31.84
35676;BME280;21790;42.668;23.298;2024-03-25T10:32:17;93810.59;;;16.53;31.63
35676;BME280;21790;42.668;23.298;2024-03-25T10:34:44;93809.59;;;16.20;30.94
35676;BME280;21790;42.668;23.298;2024-03-25T10:37:10;93816.84;;;16.35;30.61
35676;BME280;21790;42.668;23.298;2024-03-25T10:39:48;93810.41;;;16.15;31.38
35676;BME280;21790;42.668;23.298;2024-03-25T10:42:15;93808.28;;;16.27;31.41
35676;BME280;21790;42.668;23.298;2024-03-25T10:44:44;93811.50;;;16.91;30.62
35676;BME280;21790;42.668;23.298;2024-03-25T10:47:17;93798.16;;;17.02;30.41
35676;BME280;21790;42.668;23.298;2024-03-25T10:49:51;93810.56;;;16.83;30.51
35676;BME280;21790;42.668;23.298;2024-03-25T10:52:22;93816.97;;;16.48;30.20
35676;BME280;21790;42.668;23.298;2024-03-25T10:54:50;93813.78;;;16.68;30.70
35676;BME280;21790;42.668;23.298;2024-03-25T10:57:16;93804.41;;;16.90;29.50
35676;BME280;21790;42.668;23.298;2024-03-25T10:59:46;93817.22;;;16.80;29.76
35676;BME280;21790;42.668;23.298;2024-03-25T11:02:12;93804.50;;;16.54;29.06
35676;BME280;21790;42.668;23.298;2024-03-25T11:04:39;93798.00;;;16.46;29.13
35676;BME280;21790;42.668;23.298;2024-03-25T11:07:15;93804.94;;;16.88;29.61
35676;BME280;21790;42.668;23.298;2024-03-25T11:09:42;93803.66;;;16.89;29.75
35676;BME280;21790;42.668;23.298;2024-03-25T11:12:12;93799.16;;;17.05;30.09
35676;BME280;21790;42.668;23.298;2024-03-25T11:14:40;93798.84;;;17.08;29.58
35676;BME280;21790;42.668;23.298;2024-03-25T11:17:15;93800.19;;;17.45;30.01
35676;BME280;21790;42.668;23.298;2024-03-25T11:19:44;93789.38;;;17.36;29.56
35676;BME280;21790;42.668;23.298;2024-03-25T11:22:10;93808.41;;;17.37;29.80
35676;BME280;21790;42.668;23.298;2024-03-25T11:24:37;93790.00;;;17.29;30.02
35676;BME280;21790;42.668;23.298;2024-03-25T11:27:09;93790.91;;;17.37;30.79
35676;BME280;21790;42.668;23.298;2024-03-25T11:29:35;93803.13;;;17.34;31.09
35676;BME280;21790;42.668;23.298;2024-03-25T11:32:04;93812.72;;;17.38;31.48
35676;BME280;21790;42.668;23.298;2024-03-25T11:34:31;93831.91;;;17.04;31.71
35676;BME280;21790;42.668;23.298;2024-03-25T11:36:57;93830.09;;;16.83;32.41
35676;BME280;21790;42.668;23.298;2024-03-25T11:39:24;93827.72;;;16.92;32.30
35676;BME280;21790;42.668;23.298;2024-03-25T11:41:54;93817.56;;;17.13;32.05
35676;BME280;21790;42.668;23.298;2024-03-25T11:44:20;93818.25;;;16.77;32.22
35676;BME280;21790;42.668;23.298;2024-03-25T11:46:50;93820.31;;;17.19;33.02
35676;BME280;21790;42.668;23.298;2024-03-25T11:49:20;93820.78;;;17.42;32.67
35676;BME280;21790;42.668;23.298;2024-03-25T11:51:46;93811.38;;;17.45;31.67
35676;BME280;21790;42.668;23.298;2024-03-25T11:54:12;93815.16;;;17.66;32.29
35676;BME280;21790;42.668;23.298;2024-03-25T11:56:38;93811.63;;;17.66;31.98
35676;BME280;21790;42.668;23.298;2024-03-25T11:59:14;93815.69;;;17.65;32.52
35676;BME280;21790;42.668;23.298;2024-03-25T12:01:41;93811.59;;;17.84;31.68
35676;BME280;21790;42.668;23.298;2024-03-25T12:04:16;93807.06;;;18.00;31.38
35676;BME280;21790;42.668;23.298;2024-03-25T12:06:42;93803.97;;;17.85;30.57
35676;BME280;21790;42.668;23.298;2024-03-25T12:09:08;93808.09;;;17.97;30.65
35676;BME280;21790;42.668;23.298;2024-03-25T12:11:54;93827.69;;;17.60;29.45
35676;BME280;21790;42.668;23.298;2024-03-25T12:14:22;93812.66;;;17.44;30.17
35676;BME280;21790;42.668;23.298;2024-03-25T12:16:49;93830.06;;;17.31;30.51
35676;BME280;21790;42.668;23.298;2024-03-25T12:19:16;93823.50;;;17.29;30.83
35676;BME280;21790;42.668;23.298;2024-03-25T12:21:44;93822.56;;;17.02;31.05
35676;BME280;21790;42.668;23.298;2024-03-25T12:24:11;93819.00;;;17.01;31.51
35676;BME280;21790;42.668;23.298;2024-03-25T12:26:38;93824.41;;;17.18;31.12
35676;BME280;21790;42.668;23.298;2024-03-25T12:29:05;93827.28;;;17.31;30.73
35676;BME280;21790;42.668;23.298;2024-03-25T12:31:31;93829.16;;;17.42;30.52
35676;BME280;21790;42.668;23.298;2024-03-25T12:33:57;93825.63;;;17.41;30.15
35676;BME280;21790;42.668;23.298;2024-03-25T12:36:24;93817.09;;;17.34;30.71
35676;BME280;21790;42.668;23.298;2024-03-25T12:38:57;93812.06;;;17.70;30.05
35676;BME280;21790;42.668;23.298;2024-03-25T12:41:23;93823.84;;;17.63;30.36
35676;BME280;21790;42.668;23.298;2024-03-25T12:43:50;93820.03;;;17.41;29.83
35676;BME280;21790;42.668;23.298;2024-03-25T12:46:17;93812.00;;;17.13;30.74
35676;BME280;21790;42.668;23.298;2024-03-25T12:48:44;93827.00;;;17.53;30.24
35676;BME280;21790;42.668;23.298;2024-03-25T12:51:15;93826.72;;;17.76;29.70
35676;BME280;21790;42.668;23.298;2024-03-25T12:53:41;93827.78;;;17.73;29.90
35676;BME280;21790;42.668;23.298;2024-03-25T12:56:07;93834.09;;;17.54;28.99
35676;BME280;21790;42.668;23.298;2024-03-25T12:58:33;93840.44;;;17.12;29.65
35676;BME280;21790;42.668;23.298;2024-03-25T13:01:00;93833.09;;;16.90;29.58
35676;BME280;21790;42.668;23.298;2024-03-25T13:03:27;93829.16;;;16.99;30.81
35676;BME280;21790;42.668;23.298;2024-03-25T13:05:53;93849.91;;;17.03;30.19
35676;BME280;21790;42.668;23.298;2024-03-25T13:08:20;93846.44;;;17.22;30.20
35676;BME280;21790;42.668;23.298;2024-03-25T13:10:46;93840.84;;;17.22;30.42
35676;BME280;21790;42.668;23.298;2024-03-25T13:13:13;93843.75;;;17.10;30.85
35676;BME280;21790;42.668;23.298;2024-03-25T13:15:39;93841.44;;;17.14;30.49
35676;BME280;21790;42.668;23.298;2024-03-25T13:18:05;93843.06;;;17.04;30.13
35676;BME280;21790;42.668;23.298;2024-03-25T13:20:30;93845.16;;;16.98;30.76
35676;BME280;21790;42.668;23.298;2024-03-25T13:22:56;93844.47;;;16.92;30.18
35676;BME280;21790;42.668;23.298;2024-03-25T13:25:25;93854.47;;;16.82;30.22
35676;BME280;21790;42.668;23.298;2024-03-25T13:27:53;93852.63;;;16.90;30.28
35676;BME280;21790;42.668;23.298;2024-03-25T13:30:19;93842.81;;;17.02;29.93
35676;BME280;21790;42.668;23.298;2024-03-25T13:32:45;93851.56;;;17.18;29.33
35676;BME280;21790;42.668;23.298;2024-03-25T13:35:11;93841.00;;;17.29;28.94
35676;BME280;21790;42.668;23.298;2024-03-25T13:37:37;93836.22;;;17.24;29.43
35676;BME280;21790;42.668;23.298;2024-03-25T13:40:03;93854.22;;;17.04;29.85
35676;BME280;21790;42.668;23.298;2024-03-25T13:42:31;93846.28;;;17.33;29.12
35676;BME280;21790;42.668;23.298;2024-03-25T13:44:57;93859.28;;;17.06;28.81
35676;BME280;21790;42.668;23.298;2024-03-25T13:47:23;93866.44;;;17.01;29.05
35676;BME280;21790;42.668;23.298;2024-03-25T13:49:49;93869.69;;;17.05;29.09